logo
Search for airport 
image banner adimage banner adimage banner ad
image banner ad

EYKS - Kaunas/S. Dariaus And S. Gireno

Located in Kaunas, Lithuania

ICAO - EYKS, IATA -

Data provided by Airmate  

General information

Coordinates: N54°52'47" E23°52'51"
Elevation is 246 feet MSL.
Magnetic variation is 7° East
View others Airports in Kaunas County

Operational data

Special qualification required
Current time UTC:
Current local time:
Weather at : EYKA - Kaunas/International ( 16 km )
TAF: TAF EYKA 281701Z 2818/2918 VRB05KT 9000 NSC TEMPO 2818/2821 SCT040SCB TEMPO 2909/2912 BKN040CB TEMPO 2912/2918 VRB20KT 5000 TSRA BKN030CB
View NOTAMs / SUP AIP / TFR affecting this airport [VIEW]
Communications frequencies: [VIEW]

Runways:

RWY identifierQFULength (ft)Width (ft)SurfaceLDA (ft)
0994°3799164CONC+ASPH
27274°3799164CONC+ASPH

Airport contact information

Address: Kaunas Lithuania

Other aviation service providers

Flight schools

Dot Lt

Dot Lt

Aircraft Support And Training Europe 

Aircraft Support And Training Europe 
info@asteu.com+37037282282

Aviation club (not for profit)

Kauno Aeroklubas

Kauno Aeroklubas
info@aerokaunas.it+37060014325
+37060014325

Asociacija Aero-Pilot

Asociacija Aero-Pilot
aeropilot@epastas.lt+37069831791
+37069831791
Rated:
View ratings:
[VIEW]

Satellite view of EYKS